createdAt,value
2023-04-02T00:00:59.572Z,1075.00
2023-04-02T00:01:59.668Z,1041.00
2023-04-02T00:02:59.734Z,1019.00
2023-04-02T00:03:59.843Z,1039.00
2023-04-02T00:04:59.775Z,1060.00
2023-04-02T00:05:59.836Z,980.00
2023-04-02T00:06:59.887Z,1030.00
2023-04-02T00:07:59.922Z,952.00
2023-04-02T00:08:59.977Z,962.00
2023-04-02T00:10:00.074Z,906.00
2023-04-02T00:11:00.170Z,937.00
2023-04-02T00:12:00.152Z,953.00
2023-04-02T00:13:00.229Z,987.00
2023-04-02T00:14:00.275Z,988.00
2023-04-02T00:15:00.309Z,1057.00
2023-04-02T00:16:00.402Z,1047.00
2023-04-02T00:17:00.407Z,1042.00
2023-04-02T00:18:00.503Z,1069.00
2023-04-02T00:19:00.534Z,1073.00
2023-04-02T00:20:00.556Z,1065.00
2023-04-02T00:21:00.604Z,1054.00
2023-04-02T00:22:00.677Z,1049.00
2023-04-02T00:23:00.724Z,1060.00
2023-04-02T00:24:00.774Z,1061.00
2023-04-02T00:25:00.815Z,1040.00
2023-04-02T00:26:00.852Z,1041.00
2023-04-02T00:27:00.887Z,1046.00
2023-04-02T00:28:00.953Z,1049.00
2023-04-02T00:29:01.004Z,1023.00
2023-04-02T00:30:01.046Z,1039.00
2023-04-02T00:31:01.072Z,1064.00
2023-04-02T00:32:01.182Z,1040.00
2023-04-02T00:33:01.199Z,1047.00
2023-04-02T00:34:01.223Z,1036.00
2023-04-02T00:35:01.274Z,980.00
2023-04-02T00:36:01.337Z,1042.00
2023-04-02T00:37:01.389Z,1064.00
2023-04-02T00:38:01.414Z,1069.00
2023-04-02T00:39:01.448Z,1088.00
2023-04-02T00:40:01.518Z,1100.00
2023-04-02T00:41:01.539Z,1110.00
2023-04-02T00:42:01.582Z,1092.00
2023-04-02T00:43:01.638Z,1106.00
2023-04-02T00:44:01.684Z,1143.00
2023-04-02T00:45:01.723Z,1151.00
2023-04-02T00:46:01.779Z,1160.00
2023-04-02T00:47:01.810Z,1183.00
2023-04-02T00:48:01.871Z,1184.00
2023-04-02T00:49:01.894Z,1197.00
2023-04-02T00:50:01.928Z,1220.00
2023-04-02T00:51:01.954Z,1208.00
2023-04-02T00:52:02.040Z,1211.00
2023-04-02T00:53:02.030Z,1216.00
2023-04-02T00:54:02.070Z,1216.00
2023-04-02T00:55:02.134Z,1217.00
2023-04-02T00:56:02.197Z,1227.00
2023-04-02T00:57:02.258Z,1219.00
2023-04-02T00:58:02.273Z,1212.00
2023-04-02T00:59:02.319Z,1221.00
2023-04-02T01:00:02.341Z,1230.00
2023-04-02T01:01:02.461Z,1195.00
2023-04-02T01:02:02.409Z,1194.00
2023-04-02T01:03:02.572Z,1164.00
2023-04-02T01:04:02.532Z,1183.00
2023-04-02T01:05:02.715Z,1169.00
2023-04-02T01:06:02.627Z,1140.00
2023-04-02T01:07:02.663Z,1137.00
2023-04-02T01:08:02.718Z,1146.00
2023-04-02T01:09:02.740Z,1142.00
2023-04-02T01:10:02.795Z,1158.00
2023-04-02T01:11:02.819Z,1156.00
2023-04-02T01:12:02.879Z,1158.00
2023-04-02T01:13:02.908Z,1162.00
2023-04-02T01:14:02.968Z,1167.00
2023-04-02T01:15:02.999Z,1192.00
2023-04-02T01:16:03.056Z,1194.00
2023-04-02T01:17:03.066Z,1213.00
2023-04-02T01:18:03.180Z,1188.00
2023-04-02T01:19:03.177Z,1203.00
2023-04-02T01:20:03.230Z,1209.00
2023-04-02T01:21:03.273Z,1201.00
2023-04-02T01:22:03.309Z,1200.00
2023-04-02T01:23:03.368Z,1208.00
2023-04-02T01:24:03.406Z,1203.00
2023-04-02T01:25:03.424Z,1186.00
2023-04-02T01:26:03.489Z,1184.00
2023-04-02T01:27:03.570Z,1201.00
2023-04-02T01:28:03.545Z,1197.00
2023-04-02T01:29:03.571Z,1188.00
2023-04-02T01:30:03.633Z,1197.00
2023-04-02T01:31:03.652Z,1182.00
2023-04-02T01:32:03.687Z,1185.00
2023-04-02T01:33:03.743Z,1172.00
2023-04-02T01:34:03.714Z,1158.00
2023-04-02T01:35:03.755Z,1156.00
2023-04-02T01:36:03.794Z,1140.00
2023-04-02T01:37:03.806Z,1159.00
2023-04-02T01:38:03.837Z,1150.00
2023-04-02T01:39:03.860Z,1140.00
2023-04-02T01:40:03.884Z,1138.00
2023-04-02T01:41:03.924Z,1148.00
2023-04-02T01:42:03.966Z,1179.00
2023-04-02T01:43:04.012Z,1171.00
2023-04-02T01:44:04.056Z,1179.00
2023-04-02T01:45:04.068Z,1174.00
2023-04-02T01:46:04.172Z,1180.00
2023-04-02T01:47:04.122Z,1187.00
2023-04-02T01:48:04.183Z,1170.00
2023-04-02T01:49:04.172Z,1168.00
2023-04-02T01:50:04.200Z,1194.00
2023-04-02T01:51:04.224Z,1235.00
2023-04-02T01:52:04.253Z,1255.00
2023-04-02T01:53:04.265Z,1257.00
2023-04-02T01:54:04.282Z,1288.00
2023-04-02T01:55:04.334Z,1271.00
2023-04-02T01:56:04.353Z,1273.00
2023-04-02T01:57:04.423Z,1287.00
2023-04-02T01:58:04.419Z,1274.00
2023-04-02T01:59:04.433Z,1269.00
2023-04-02T02:00:04.469Z,1249.00
2023-04-02T02:01:04.549Z,1266.00
2023-04-02T02:02:04.537Z,1258.00
2023-04-02T02:03:04.682Z,1248.00
2023-04-02T02:04:04.611Z,1234.00
2023-04-02T02:05:04.630Z,1233.00
2023-04-02T02:06:04.672Z,1227.00
2023-04-02T02:07:04.688Z,1213.00
2023-04-02T02:08:04.710Z,1234.00
2023-04-02T02:09:04.768Z,1231.00
2023-04-02T02:10:04.877Z,1226.00
2023-04-02T02:11:04.807Z,1197.00
2023-04-02T02:12:04.854Z,1191.00
2023-04-02T02:13:04.888Z,1169.00
2023-04-02T02:14:04.919Z,1160.00
2023-04-02T02:15:04.924Z,1162.00
2023-04-02T02:16:05.012Z,1158.00
2023-04-02T02:17:04.982Z,1169.00
2023-04-02T02:18:04.986Z,1171.00
2023-04-02T02:19:05.019Z,1178.00
2023-04-02T02:20:05.032Z,1176.00
2023-04-02T02:21:05.056Z,1167.00
2023-04-02T02:22:05.072Z,1169.00
2023-04-02T02:23:05.075Z,1146.00
2023-04-02T02:24:05.078Z,1123.00
2023-04-02T02:25:05.080Z,1105.00
2023-04-02T02:26:05.114Z,1084.00
2023-04-02T02:27:05.128Z,1107.00
2023-04-02T02:28:05.156Z,1114.00
2023-04-02T02:29:05.166Z,1138.00
2023-04-02T02:30:05.212Z,1169.00
2023-04-02T02:31:05.224Z,1169.00
2023-04-02T02:32:05.280Z,1177.00
2023-04-02T02:33:05.297Z,1165.00
2023-04-02T02:34:05.312Z,1160.00
2023-04-02T02:35:05.329Z,1171.00
2023-04-02T02:36:05.364Z,1171.00
2023-04-02T02:37:05.373Z,1189.00
2023-04-02T02:38:05.385Z,1213.00
2023-04-02T02:39:05.411Z,1189.00
2023-04-02T02:40:05.439Z,1182.00
2023-04-02T02:41:05.467Z,1188.00
2023-04-02T02:42:05.465Z,1198.00
2023-04-02T02:43:05.507Z,1202.00
2023-04-02T02:44:05.508Z,1222.00
2023-04-02T02:45:05.520Z,1212.00
2023-04-02T02:46:05.556Z,1231.00
2023-04-02T02:47:05.521Z,1235.00
2023-04-02T02:48:05.576Z,1252.00
2023-04-02T02:49:05.530Z,1249.00
2023-04-02T02:50:05.536Z,1258.00
2023-04-02T02:51:05.596Z,1268.00
2023-04-02T02:52:05.625Z,1279.00
2023-04-02T02:53:05.650Z,1258.00
2023-04-02T02:54:05.660Z,1274.00
2023-04-02T02:55:05.709Z,1266.00
2023-04-02T02:56:05.717Z,1263.00
2023-04-02T02:57:05.784Z,1291.00
2023-04-02T02:58:05.742Z,1292.00
2023-04-02T02:59:05.771Z,1281.00
2023-04-02T03:00:05.818Z,1279.00
2023-04-02T03:01:05.849Z,1270.00
2023-04-02T03:02:05.856Z,1258.00
2023-04-02T03:03:06.028Z,1249.00
2023-04-02T03:04:05.992Z,1228.00
2023-04-02T03:05:05.924Z,1224.00
2023-04-02T03:06:05.927Z,1216.00
2023-04-02T03:07:05.945Z,1208.00
2023-04-02T03:08:05.967Z,1190.00
2023-04-02T03:09:05.992Z,1161.00
2023-04-02T03:10:06.013Z,1176.00
2023-04-02T03:11:06.012Z,1173.00
2023-04-02T03:12:06.025Z,1168.00
2023-04-02T03:13:06.027Z,1162.00
2023-04-02T03:14:06.039Z,1171.00
2023-04-02T03:15:06.080Z,1176.00
2023-04-02T03:16:06.190Z,1182.00
2023-04-02T03:17:06.121Z,1182.00
2023-04-02T03:18:06.210Z,1189.00
2023-04-02T03:19:06.164Z,1192.00
2023-04-02T03:20:06.180Z,1195.00
2023-04-02T03:21:06.220Z,1211.00
2023-04-02T03:22:06.234Z,1206.00
2023-04-02T03:23:06.265Z,1235.00
2023-04-02T03:24:06.323Z,1224.00
2023-04-02T03:25:06.301Z,1204.00
2023-04-02T03:26:06.310Z,1200.00
2023-04-02T03:27:06.446Z,1198.00
2023-04-02T03:28:06.355Z,1216.00
2023-04-02T03:29:06.377Z,1207.00
2023-04-02T03:30:06.380Z,1212.00
2023-04-02T03:31:06.474Z,1212.00
2023-04-02T03:32:06.422Z,1212.00
2023-04-02T03:33:06.461Z,1230.00
2023-04-02T03:34:06.450Z,1221.00
2023-04-02T03:35:06.487Z,1222.00
2023-04-02T03:36:06.535Z,1218.00
2023-04-02T03:37:06.548Z,1206.00
2023-04-02T03:38:06.610Z,1207.00
2023-04-02T03:39:06.614Z,1201.00
2023-04-02T03:40:06.610Z,1177.00
2023-04-02T03:41:06.668Z,1169.00
2023-04-02T03:42:06.675Z,1140.00
2023-04-02T03:43:06.697Z,1154.00
2023-04-02T03:44:06.726Z,1142.00
2023-04-02T03:45:06.747Z,1117.00
2023-04-02T03:46:06.813Z,1088.00
2023-04-02T03:47:06.831Z,1088.00
2023-04-02T03:48:06.898Z,1077.00
2023-04-02T03:49:06.922Z,1032.00
2023-04-02T03:50:06.961Z,1063.00
2023-04-02T03:51:06.948Z,1087.00
2023-04-02T03:52:07.005Z,1100.00
2023-04-02T03:53:07.033Z,1120.00
2023-04-02T03:54:07.050Z,1130.00
2023-04-02T03:55:07.070Z,1154.00
2023-04-02T03:56:07.086Z,1181.00
2023-04-02T03:57:07.168Z,1188.00
2023-04-02T03:58:07.127Z,1212.00
2023-04-02T03:59:07.146Z,1235.00
2023-04-02T04:00:07.180Z,1228.00
2023-04-02T04:01:07.175Z,1238.00
2023-04-02T04:02:07.225Z,1243.00
2023-04-02T04:03:07.227Z,1237.00
2023-04-02T04:04:07.226Z,1258.00
2023-04-02T04:05:07.210Z,1263.00
2023-04-02T04:06:07.224Z,1263.00
2023-04-02T04:07:07.307Z,1271.00
2023-04-02T04:08:07.281Z,1279.00
2023-04-02T04:09:07.280Z,1303.00
2023-04-02T04:10:07.306Z,1289.00
2023-04-02T04:11:07.351Z,1280.00
2023-04-02T04:12:07.344Z,1279.00
2023-04-02T04:13:07.349Z,1273.00
2023-04-02T04:14:07.384Z,1263.00
2023-04-02T04:15:07.383Z,1263.00
2023-04-02T04:16:07.417Z,1261.00
2023-04-02T04:17:07.418Z,1266.00
2023-04-02T04:18:07.423Z,1245.00
2023-04-02T04:19:07.398Z,1263.00
2023-04-02T04:20:07.452Z,1259.00
2023-04-02T04:21:07.403Z,1247.00
2023-04-02T04:22:07.410Z,1279.00
2023-04-02T04:23:07.420Z,1274.00
2023-04-02T04:24:07.433Z,1251.00
2023-04-02T04:25:07.429Z,1236.00
2023-04-02T04:26:07.433Z,1225.00
2023-04-02T04:27:07.433Z,1213.00
2023-04-02T04:28:07.463Z,1198.00
2023-04-02T04:29:07.452Z,1171.00
2023-04-02T04:30:07.470Z,1150.00
2023-04-02T04:31:07.451Z,1141.00
2023-04-02T04:32:07.503Z,1095.00
2023-04-02T04:33:07.487Z,1110.00
2023-04-02T04:34:07.464Z,1116.00
2023-04-02T04:35:07.482Z,1124.00
2023-04-02T04:36:07.499Z,1128.00
2023-04-02T04:37:07.498Z,1124.00
2023-04-02T04:38:07.466Z,1123.00
2023-04-02T04:39:07.508Z,1149.00
2023-04-02T04:40:07.502Z,1146.00
2023-04-02T04:41:07.500Z,1147.00
2023-04-02T04:42:07.519Z,1165.00
2023-04-02T04:43:07.532Z,1184.00
2023-04-02T04:44:07.527Z,1202.00
2023-04-02T04:45:07.514Z,1240.00
2023-04-02T04:46:07.539Z,1237.00
2023-04-02T04:47:07.527Z,1245.00
2023-04-02T04:48:07.536Z,1251.00
2023-04-02T04:49:07.533Z,1252.00
2023-04-02T04:50:07.568Z,1258.00
2023-04-02T04:51:07.585Z,1238.00
2023-04-02T04:52:07.578Z,1233.00
2023-04-02T04:53:07.579Z,1228.00
2023-04-02T04:54:07.584Z,1204.00
2023-04-02T04:55:07.593Z,1197.00
2023-04-02T04:56:18.917Z,1191.00
2023-04-02T04:57:08.649Z,1192.00
2023-04-02T04:58:07.569Z,1197.00
2023-04-02T04:59:07.580Z,1206.00
2023-04-02T05:00:07.574Z,1217.00
2023-04-02T05:01:07.619Z,1226.00
2023-04-02T05:02:07.582Z,1196.00
2023-04-02T05:03:07.577Z,1192.00
2023-04-02T05:04:07.545Z,1179.00
2023-04-02T05:05:07.539Z,1192.00
2023-04-02T05:06:07.509Z,1181.00
2023-04-02T05:07:07.508Z,1204.00
2023-04-02T05:08:07.517Z,1184.00
2023-04-02T05:09:07.493Z,1197.00
2023-04-02T05:10:07.496Z,1169.00
2023-04-02T05:11:07.472Z,1188.00
2023-04-02T05:12:07.484Z,1200.00
2023-04-02T05:13:07.512Z,1200.00
2023-04-02T05:14:07.470Z,1198.00
2023-04-02T05:15:07.477Z,1183.00
2023-04-02T05:16:07.482Z,1163.00
2023-04-02T05:17:07.452Z,1162.00
2023-04-02T05:18:07.532Z,1186.00
2023-04-02T05:19:07.431Z,1184.00
2023-04-02T05:20:07.433Z,1186.00
2023-04-02T05:21:07.410Z,1193.00
2023-04-02T05:22:07.412Z,1207.00
2023-04-02T05:23:07.416Z,1185.00
2023-04-02T05:24:07.388Z,1190.00
2023-04-02T05:25:07.387Z,1181.00
2023-04-02T05:26:07.382Z,1188.00
2023-04-02T05:27:07.368Z,1190.00
2023-04-02T05:28:07.395Z,1183.00
2023-04-02T05:29:07.360Z,1188.00
2023-04-02T05:30:07.362Z,1159.00
2023-04-02T05:31:07.419Z,1163.00
2023-04-02T05:32:07.376Z,1128.00
2023-04-02T05:33:07.400Z,1133.00
2023-04-02T05:34:07.402Z,1111.00
2023-04-02T05:35:07.435Z,1113.00
2023-04-02T05:36:07.499Z,1124.00
2023-04-02T05:37:07.466Z,1137.00
2023-04-02T05:38:07.476Z,1142.00
2023-04-02T05:39:07.469Z,1144.00
2023-04-02T05:40:07.469Z,1144.00
2023-04-02T05:41:07.519Z,1114.00
2023-04-02T05:42:07.526Z,1140.00
2023-04-02T05:43:07.588Z,1138.00
2023-04-02T05:44:07.592Z,1127.00
2023-04-02T05:45:07.627Z,1129.00
2023-04-02T05:46:07.689Z,1125.00
2023-04-02T05:47:07.723Z,1129.00
2023-04-02T05:48:07.803Z,1129.00
2023-04-02T05:49:07.803Z,1155.00
2023-04-02T05:50:07.869Z,1172.00
2023-04-02T05:51:07.881Z,1170.00
2023-04-02T05:52:07.991Z,1164.00
2023-04-02T05:53:08.049Z,1180.00
2023-04-02T05:54:08.077Z,1190.00
2023-04-02T05:55:08.129Z,1187.00
2023-04-02T05:56:08.168Z,1176.00
2023-04-02T05:57:08.279Z,1178.00
2023-04-02T05:59:09.268Z,1168.00
2023-04-02T06:00:08.322Z,1169.00
2023-04-02T06:01:08.267Z,1172.00
2023-04-02T06:02:08.306Z,1178.00
2023-04-02T06:03:08.422Z,1190.00
2023-04-02T06:04:08.353Z,1190.00
2023-04-02T06:05:08.222Z,1201.00
2023-04-02T06:06:08.220Z,1199.00
2023-04-02T06:07:08.234Z,1181.00
2023-04-02T06:08:08.278Z,1183.00
2023-04-02T06:09:08.321Z,1180.00
2023-04-02T06:10:08.357Z,1196.00
2023-04-02T06:11:08.388Z,1199.00
2023-04-02T06:12:08.401Z,1211.00
2023-04-02T06:13:08.419Z,1224.00
2023-04-02T06:14:08.400Z,1273.00
2023-04-02T06:15:08.399Z,1291.00
2023-04-02T06:16:08.462Z,1313.00
2023-04-02T06:17:08.494Z,1322.00
2023-04-02T06:18:08.634Z,1307.00
2023-04-02T06:19:08.624Z,1359.00
2023-04-02T06:20:08.663Z,1328.00
2023-04-02T06:21:08.712Z,1376.00
2023-04-02T06:22:08.764Z,1339.00
2023-04-02T06:23:08.816Z,1355.00
2023-04-02T06:24:08.836Z,1327.00
2023-04-02T06:25:08.890Z,1406.00
2023-04-02T06:26:08.890Z,1445.00
2023-04-02T06:27:08.931Z,1421.00
2023-04-02T06:28:08.935Z,1381.00
2023-04-02T06:29:08.939Z,1347.00
2023-04-02T06:30:08.933Z,1375.00
2023-04-02T06:31:09.044Z,1374.00
2023-04-02T06:32:09.040Z,1404.00
2023-04-02T06:33:09.139Z,1445.00
2023-04-02T06:34:09.092Z,1442.00
2023-04-02T06:35:09.138Z,1490.00
2023-04-02T06:36:09.155Z,1503.00
2023-04-02T06:37:09.126Z,1534.00
2023-04-02T06:38:09.216Z,1582.00
2023-04-02T06:39:09.255Z,1603.00
2023-04-02T06:40:09.292Z,1673.00
2023-04-02T06:41:09.320Z,1733.00
2023-04-02T06:42:09.356Z,1764.00
2023-04-02T06:43:09.402Z,1738.00
2023-04-02T06:44:09.421Z,1677.00
2023-04-02T06:45:09.412Z,1653.00
2023-04-02T06:46:09.474Z,1654.00
2023-04-02T06:47:09.452Z,1614.00
2023-04-02T06:48:09.498Z,1565.00
2023-04-02T06:49:09.517Z,1513.00
2023-04-02T06:50:09.588Z,1465.00
2023-04-02T06:51:09.591Z,1433.00
2023-04-02T06:52:09.614Z,1433.00
2023-04-02T06:53:09.680Z,1521.00
2023-04-02T06:54:09.694Z,1589.00
2023-04-02T06:55:09.736Z,1600.00
2023-04-02T06:56:09.739Z,1681.00
2023-04-02T06:57:09.823Z,1740.00
2023-04-02T06:58:09.813Z,1830.00
2023-04-02T06:59:09.861Z,1890.00
2023-04-02T07:00:09.848Z,1821.00
2023-04-02T07:01:09.883Z,1802.00
2023-04-02T07:02:09.853Z,1789.00
2023-04-02T07:03:09.891Z,1753.00
2023-04-02T07:04:09.873Z,1729.00
2023-04-02T07:05:10.003Z,1711.00
2023-04-02T07:06:09.925Z,1693.00
2023-04-02T07:07:09.915Z,1673.00
2023-04-02T07:08:09.928Z,1653.00
2023-04-02T07:09:09.946Z,1649.00
2023-04-02T07:10:09.947Z,1634.00
2023-04-02T07:11:09.996Z,1592.00
2023-04-02T07:12:10.021Z,1568.00
2023-04-02T07:13:10.041Z,1517.00
2023-04-02T07:14:10.027Z,1476.00
2023-04-02T07:15:10.053Z,1423.00
2023-04-02T07:16:10.108Z,1413.00
2023-04-02T07:17:10.113Z,1383.00
2023-04-02T07:18:10.217Z,1333.00
2023-04-02T07:19:10.189Z,1259.00
2023-04-02T07:20:10.209Z,1205.00
2023-04-02T07:21:10.206Z,1149.00
2023-04-02T07:22:10.243Z,1159.00
2023-04-02T07:23:10.259Z,1187.00
2023-04-02T07:24:10.343Z,1146.00
2023-04-02T07:25:10.371Z,1113.00
2023-04-02T07:26:10.432Z,1057.00
2023-04-02T07:27:10.483Z,1025.00
2023-04-02T07:28:10.510Z,1011.00
2023-04-02T07:29:10.507Z,983.00
2023-04-02T07:30:10.500Z,957.00
2023-04-02T07:31:10.522Z,956.00
2023-04-02T07:32:10.535Z,950.00
2023-04-02T07:33:10.588Z,935.00
2023-04-02T07:34:10.519Z,905.00
2023-04-02T07:35:10.534Z,942.00
2023-04-02T07:36:10.588Z,1003.00
2023-04-02T07:37:10.587Z,1062.00
2023-04-02T07:38:10.620Z,1105.00
2023-04-02T07:39:10.637Z,1099.00
2023-04-02T07:40:10.664Z,1142.00
2023-04-02T07:41:10.660Z,1166.00
2023-04-02T07:42:10.655Z,1175.00
2023-04-02T07:43:10.728Z,1216.00
2023-04-02T07:44:10.776Z,1207.00
2023-04-02T07:45:10.818Z,1248.00
2023-04-02T07:46:10.893Z,1239.00
2023-04-02T07:47:10.881Z,1280.00
2023-04-02T07:48:10.887Z,1286.00
2023-04-02T07:49:10.908Z,1287.00
2023-04-02T07:50:10.938Z,1273.00
2023-04-02T07:51:10.998Z,1277.00
2023-04-02T07:52:11.020Z,1315.00
2023-04-02T07:53:11.044Z,1304.00
2023-04-02T07:54:11.045Z,1346.00
2023-04-02T07:55:11.091Z,1337.00
2023-04-02T07:56:11.111Z,1368.00
2023-04-02T07:57:11.179Z,1395.00
2023-04-02T07:58:11.235Z,1426.00
2023-04-02T07:59:11.248Z,1353.00
2023-04-02T08:00:11.292Z,1418.00
2023-04-02T08:01:11.311Z,1315.00
2023-04-02T08:02:11.363Z,1272.00
2023-04-02T08:03:11.521Z,1213.00
2023-04-02T08:04:11.413Z,1195.00
2023-04-02T08:05:11.405Z,1230.00
2023-04-02T08:06:11.401Z,1153.00
2023-04-02T08:07:11.434Z,1105.00
2023-04-02T08:08:11.467Z,990.00
2023-04-02T08:09:11.490Z,948.00
2023-04-02T08:10:11.504Z,947.00
2023-04-02T08:11:11.536Z,895.00
2023-04-02T08:12:11.567Z,787.00
2023-04-02T08:13:11.596Z,709.00
2023-04-02T08:14:11.653Z,609.00
2023-04-02T08:15:11.659Z,655.00
2023-04-02T08:16:11.837Z,617.00
2023-04-02T08:17:11.776Z,635.00
2023-04-02T08:18:11.836Z,629.00
2023-04-02T08:19:11.878Z,638.00
2023-04-02T08:20:11.948Z,615.00
2023-04-02T08:21:12.439Z,565.00
2023-04-02T08:22:12.038Z,623.00
2023-04-02T08:23:12.088Z,588.00
2023-04-02T08:24:12.100Z,567.00
2023-04-02T08:25:12.086Z,510.00
2023-04-02T08:26:12.121Z,526.00
2023-04-02T08:27:12.091Z,501.00
2023-04-02T08:28:12.091Z,502.00
2023-04-02T08:29:12.107Z,499.00
2023-04-02T08:30:12.120Z,508.00
2023-04-02T08:31:12.182Z,493.00
2023-04-02T08:32:12.183Z,547.00
2023-04-02T08:33:12.271Z,537.00
2023-04-02T08:34:12.259Z,492.00
2023-04-02T08:35:12.312Z,498.00
2023-04-02T08:36:12.380Z,488.00
2023-04-02T08:37:12.408Z,492.00
2023-04-02T08:38:12.404Z,499.00
2023-04-02T08:39:12.415Z,506.00
2023-04-02T08:40:12.411Z,511.00
2023-04-02T08:41:12.435Z,526.00
2023-04-02T08:42:12.457Z,520.00
2023-04-02T08:43:12.474Z,499.00
2023-04-02T08:44:12.513Z,504.00
2023-04-02T08:45:24.401Z,499.00
2023-04-02T08:46:13.577Z,476.00
2023-04-02T08:47:12.528Z,477.00
2023-04-02T08:48:12.504Z,470.00
2023-04-02T08:49:12.512Z,462.00
2023-04-02T08:50:12.500Z,451.00
2023-04-02T08:51:12.488Z,479.00
2023-04-02T08:52:12.491Z,507.00
2023-04-02T08:53:12.515Z,521.00
2023-04-02T08:54:12.472Z,500.00
2023-04-02T08:55:12.532Z,532.00
2023-04-02T08:56:12.464Z,536.00
2023-04-02T08:57:12.506Z,543.00
2023-04-02T08:58:12.491Z,580.00
2023-04-02T08:59:12.540Z,548.00
2023-04-02T09:00:12.586Z,597.00
2023-04-02T09:01:12.646Z,610.00
2023-04-02T09:02:12.704Z,687.00
2023-04-02T09:03:12.766Z,654.00
2023-04-02T09:04:12.851Z,724.00
2023-04-02T09:05:12.889Z,917.00
2023-04-02T09:06:14.727Z,797.00
2023-04-02T09:07:12.914Z,720.00
2023-04-02T09:08:12.898Z,762.00
2023-04-02T09:09:12.897Z,742.00
2023-04-02T09:10:12.893Z,705.00
2023-04-02T09:11:12.889Z,759.00
2023-04-02T09:12:12.871Z,881.00
2023-04-02T09:13:12.880Z,853.00
2023-04-02T09:14:12.865Z,771.00
2023-04-02T09:15:12.856Z,875.00
2023-04-02T09:16:12.887Z,851.00
2023-04-02T09:17:12.852Z,808.00
2023-04-02T09:18:12.916Z,751.00
2023-04-02T09:19:12.832Z,637.00
2023-04-02T09:20:12.813Z,666.00
2023-04-02T09:21:12.818Z,659.00
2023-04-02T09:22:12.798Z,647.00
2023-04-02T09:23:12.794Z,673.00
2023-04-02T09:24:12.792Z,639.00
2023-04-02T09:25:12.778Z,645.00
2023-04-02T09:26:12.784Z,695.00
2023-04-02T09:27:12.764Z,719.00
2023-04-02T09:28:12.752Z,770.00
2023-04-02T09:29:12.779Z,666.00
2023-04-02T09:30:12.763Z,843.00
2023-04-02T09:31:12.762Z,816.00
2023-04-02T09:32:12.743Z,817.00
2023-04-02T09:33:12.766Z,839.00
2023-04-02T09:34:12.745Z,902.00
2023-04-02T09:35:24.579Z,876.00
2023-04-02T09:36:15.679Z,831.00
2023-04-02T09:37:12.694Z,896.00
2023-04-02T09:38:12.733Z,937.00
2023-04-02T09:39:12.744Z,966.00
2023-04-02T09:40:12.681Z,889.00
2023-04-02T09:41:12.677Z,1011.00
2023-04-02T09:42:12.678Z,920.00
2023-04-02T09:43:12.726Z,1028.00
2023-04-02T09:44:12.681Z,964.00
2023-04-02T09:45:12.671Z,1095.00
2023-04-02T09:46:12.681Z,999.00
2023-04-02T09:47:12.640Z,1082.00
2023-04-02T09:48:12.663Z,1085.00
2023-04-02T09:49:12.625Z,1090.00
2023-04-02T09:50:12.626Z,1141.00
2023-04-02T09:51:12.658Z,1198.00
2023-04-02T09:52:12.623Z,1281.00
2023-04-02T09:53:12.628Z,1214.00
2023-04-02T09:54:12.714Z,1300.00
2023-04-02T09:55:12.606Z,1274.00
2023-04-02T09:56:12.580Z,1296.00
2023-04-02T09:57:12.590Z,1458.00
2023-04-02T09:58:12.575Z,1370.00
2023-04-02T09:59:12.577Z,1376.00
2023-04-02T10:00:21.821Z,1474.00
2023-04-02T10:01:13.591Z,1475.00
2023-04-02T10:02:12.533Z,1487.00
2023-04-02T10:03:12.546Z,1511.00
2023-04-02T10:04:12.562Z,1564.00
2023-04-02T10:05:12.542Z,1662.00
2023-04-02T10:06:12.510Z,1682.00
2023-04-02T10:07:12.512Z,1654.00
2023-04-02T10:08:12.503Z,1702.00
2023-04-02T10:09:12.527Z,1693.00
2023-04-02T10:10:12.531Z,1709.00
2023-04-02T10:11:12.492Z,1717.00
2023-04-02T10:12:12.542Z,1742.00
2023-04-02T10:13:12.592Z,1752.00
2023-04-02T10:14:12.653Z,1729.00
2023-04-02T10:15:12.693Z,1793.00
2023-04-02T10:16:12.793Z,1793.00
2023-04-02T10:17:12.883Z,1756.00
2023-04-02T10:18:12.884Z,1785.00
2023-04-02T10:19:12.963Z,1795.00
2023-04-02T10:20:13.067Z,1752.00
2023-04-02T10:21:13.072Z,1765.00
2023-04-02T10:22:13.149Z,1769.00
2023-04-02T10:23:13.217Z,1771.00
2023-04-02T10:24:13.305Z,1795.00
2023-04-02T10:25:13.333Z,1804.00
2023-04-02T10:26:13.393Z,1808.00
2023-04-02T10:27:13.445Z,1839.00
2023-04-02T10:28:13.521Z,1846.00
2023-04-02T10:29:13.565Z,1814.00
2023-04-02T10:30:13.619Z,1833.00
2023-04-02T10:31:13.690Z,1828.00
2023-04-02T10:32:13.740Z,1813.00
2023-04-02T10:33:13.809Z,1825.00
2023-04-02T10:34:13.878Z,1706.00
2023-04-02T10:35:13.937Z,1704.00
2023-04-02T10:36:14.015Z,1756.00
2023-04-02T10:37:14.029Z,1702.00
2023-04-02T10:38:14.092Z,1719.00
2023-04-02T10:39:14.128Z,1702.00
2023-04-02T10:40:14.189Z,1681.00
2023-04-02T10:41:14.218Z,1566.00
2023-04-02T10:42:14.240Z,1597.00
2023-04-02T10:43:14.291Z,1639.00
2023-04-02T10:44:20.189Z,1547.00
2023-04-02T10:45:15.328Z,1549.00
2023-04-02T10:46:14.397Z,1550.00
2023-04-02T10:47:14.306Z,1556.00
2023-04-02T10:48:14.330Z,1563.00
2023-04-02T10:49:14.296Z,1514.00
2023-04-02T10:50:14.311Z,1340.00
2023-04-02T10:51:14.294Z,1388.00
2023-04-02T10:52:14.280Z,1422.00
2023-04-02T10:53:14.280Z,1416.00
2023-04-02T10:54:14.276Z,1391.00
2023-04-02T10:55:14.253Z,1465.00
2023-04-02T10:56:14.277Z,1430.00
2023-04-02T10:57:14.444Z,1508.00
2023-04-02T10:58:14.351Z,1420.00
2023-04-02T10:59:14.431Z,1425.00
2023-04-02T11:00:14.470Z,1549.00
2023-04-02T11:01:14.564Z,1586.00
2023-04-02T11:02:14.594Z,1511.00
2023-04-02T11:03:14.732Z,1548.00
2023-04-02T11:04:14.713Z,1607.00
2023-04-02T11:05:14.765Z,1631.00
2023-04-02T11:06:14.806Z,1717.00
2023-04-02T11:07:15.146Z,1723.00
2023-04-02T11:08:14.865Z,1732.00
2023-04-02T11:09:14.915Z,1718.00
2023-04-02T11:10:14.898Z,1766.00
2023-04-02T11:11:14.942Z,1747.00
2023-04-02T11:12:14.944Z,1814.00
2023-04-02T11:13:14.938Z,1793.00
2023-04-02T11:14:14.963Z,1806.00
2023-04-02T11:15:14.950Z,1784.00
2023-04-02T11:16:14.983Z,1784.00
2023-04-02T11:17:14.955Z,1797.00
2023-04-02T11:18:14.948Z,1809.00
2023-04-02T11:19:14.937Z,1808.00
2023-04-02T11:20:14.945Z,1805.00
2023-04-02T11:21:14.955Z,1812.00
2023-04-02T11:22:14.950Z,1770.00
2023-04-02T11:23:14.954Z,1808.00
2023-04-02T11:24:14.956Z,1788.00
2023-04-02T11:25:14.957Z,1789.00
2023-04-02T11:26:14.958Z,1797.00
2023-04-02T11:27:14.966Z,1790.00
2023-04-02T11:28:14.950Z,1794.00
2023-04-02T11:29:14.987Z,1710.00
2023-04-02T11:30:14.980Z,1765.00
2023-04-02T11:31:15.019Z,1697.00
2023-04-02T11:32:14.986Z,1735.00
2023-04-02T11:33:18.647Z,1696.00
2023-04-02T11:34:15.984Z,1643.00
2023-04-02T11:35:14.973Z,1552.00
2023-04-02T11:36:14.982Z,1636.00
2023-04-02T11:37:14.972Z,1619.00
2023-04-02T11:38:14.944Z,1627.00
2023-04-02T11:39:17.701Z,1441.00
2023-04-02T11:40:14.965Z,1599.00
2023-04-02T11:41:14.944Z,1563.00
2023-04-02T11:42:14.935Z,1505.00
2023-04-02T11:43:14.919Z,1441.00
2023-04-02T11:44:14.947Z,1404.00
2023-04-02T11:45:14.919Z,1456.00
2023-04-02T11:46:14.942Z,1420.00
2023-04-02T11:47:14.903Z,1384.00
2023-04-02T11:48:14.888Z,1151.00
2023-04-02T11:49:14.906Z,1176.00
2023-04-02T11:50:14.874Z,1088.00
2023-04-02T11:51:14.885Z,991.00
2023-04-02T11:52:14.863Z,1069.00
2023-04-02T11:53:14.861Z,1115.00
2023-04-02T11:54:14.854Z,1019.00
2023-04-02T11:55:14.850Z,1011.00
2023-04-02T11:56:14.832Z,1003.00
2023-04-02T11:57:14.878Z,1026.00
2023-04-02T11:58:14.839Z,1047.00
2023-04-02T11:59:14.812Z,1069.00
2023-04-02T12:00:16.213Z,1164.00
2023-04-02T12:01:14.958Z,1165.00
2023-04-02T12:02:14.838Z,1180.00
2023-04-02T12:03:14.852Z,1180.00
2023-04-02T12:04:14.796Z,1218.00
2023-04-02T12:05:14.849Z,1385.00
2023-04-02T12:06:14.761Z,1367.00
2023-04-02T12:07:14.767Z,1478.00
2023-04-02T12:08:14.748Z,1553.00
2023-04-02T12:09:14.750Z,1658.00
2023-04-02T12:10:14.734Z,1721.00
2023-04-02T12:11:14.741Z,1735.00